Time;durP1;ratioP1;P1;durP2;ratioP2;P2;SDS_P1;SDS_P2;PMS_P1;PMS_P2;Temp;Humidity;BMP_temperature;BMP_pressure;BME280_temperature;BME280_humidity;BME280_pressure;Samples;Min_cycle;Max_cycle;Signal;HPM_P1;HPM_P2
2022/06/30 00:01:44;;;;;;;1.73;0.50;;;;;;;;;;5105721;27;20048;-67
2022/06/30 00:04:10;;;;;;;2.20;0.60;;;;;;;;;;5107092;27;20787;-67
2022/06/30 00:06:41;;;;;;;1.77;0.50;;;;;;;;;;5108456;27;20036;-66
2022/06/30 00:09:07;;;;;;;1.73;0.50;;;;;;;;;;5107454;27;20035;-68
2022/06/30 00:11:34;;;;;;;2.78;0.80;;;;;;;;;;5104533;27;20044;-67
2022/06/30 00:14:01;;;;;;;2.33;0.73;;;;;;;;;;5103097;27;20831;-68
2022/06/30 00:16:28;;;;;;;1.85;0.60;;;;;;;;;;5082731;27;20099;-68
2022/06/30 00:18:54;;;;;;;2.22;0.70;;;;;;;;;;5102252;27;20066;-67
2022/06/30 00:21:21;;;;;;;2.33;0.65;;;;;;;;;;5095986;27;20135;-67
2022/06/30 00:23:48;;;;;;;1.75;0.50;;;;;;;;;;5101093;27;20094;-66
2022/06/30 00:26:14;;;;;;;1.83;0.60;;;;;;;;;;5086880;28;20044;-66
2022/06/30 00:28:41;;;;;;;2.30;0.60;;;;;;;;;;5083900;28;20041;-67
2022/06/30 00:31:08;;;;;;;1.65;0.60;;;;;;;;;;5104520;27;20043;-66
2022/06/30 00:33:34;;;;;;;1.90;0.60;;;;;;;;;;5103536;27;20449;-66
2022/06/30 00:36:01;;;;;;;1.83;0.50;;;;;;;;;;5104289;27;20047;-66
2022/06/30 00:38:28;;;;;;;2.10;0.57;;;;;;;;;;5102735;27;20055;-66
2022/06/30 00:40:54;;;;;;;1.95;0.60;;;;;;;;;;5103536;27;20051;-67
2022/06/30 00:43:21;;;;;;;1.70;0.60;;;;;;;;;;5105190;27;20669;-67
2022/06/30 00:45:48;;;;;;;2.67;0.70;;;;;;;;;;5085428;27;20062;-69
2022/06/30 00:48:16;;;;;;;1.60;0.50;;;;;;;;;;5101287;27;20364;-67
2022/06/30 00:50:43;;;;;;;4.20;0.52;;;;;;;;;;5102461;27;20042;-66
2022/06/30 00:53:11;;;;;;;1.50;0.40;;;;;;;;;;5102036;27;20130;-66
2022/06/30 00:55:38;;;;;;;4.22;0.60;;;;;;;;;;5104147;27;20039;-69
2022/06/30 00:58:06;;;;;;;2.22;0.70;;;;;;;;;;5086526;27;20051;-68
2022/06/30 01:00:37;;;;;;;1.58;0.45;;;;;;;;;;5102038;27;20047;-68
2022/06/30 01:03:04;;;;;;;3.05;0.65;;;;;;;;;;5102431;27;20032;-68
2022/06/30 01:05:32;;;;;;;2.75;0.75;;;;;;;;;;5102725;27;20162;-67
2022/06/30 01:07:59;;;;;;;1.67;0.55;;;;;;;;;;5098744;27;20035;-65
2022/06/30 01:13:11;;;;;;;1.95;0.60;;;;;;;;;;5102122;28;20058;-68
2022/06/30 01:15:39;;;;;;;4.30;0.60;;;;;;;;;;5102788;27;20048;-68
2022/06/30 01:18:05;;;;;;;2.50;0.80;;;;;;;;;;5091585;28;20043;-67
2022/06/30 01:20:34;;;;;;;2.60;0.60;;;;;;;;;;5101551;28;20413;-67
2022/06/30 01:23:01;;;;;;;1.83;0.63;;;;;;;;;;5101836;27;20057;-67
2022/06/30 01:25:28;;;;;;;2.20;0.60;;;;;;;;;;5101026;28;20036;-67
2022/06/30 01:27:55;;;;;;;2.90;0.60;;;;;;;;;;5098296;28;20044;-67
2022/06/30 01:30:25;;;;;;;2.97;0.68;;;;;;;;;;5073955;28;20133;-67
2022/06/30 01:32:52;;;;;;;1.90;0.57;;;;;;;;;;5082294;28;20052;-68
2022/06/30 01:35:21;;;;;;;2.38;0.60;;;;;;;;;;5070635;28;20064;-68
2022/06/30 01:37:48;;;;;;;2.50;0.60;;;;;;;;;;5077528;28;20246;-67
2022/06/30 01:40:15;;;;;;;2.67;0.60;;;;;;;;;;5064568;28;20033;-68
2022/06/30 01:42:42;;;;;;;8.43;0.88;;;;;;;;;;5068853;28;20033;-68
2022/06/30 01:45:09;;;;;;;1.95;0.60;;;;;;;;;;5065646;28;21751;-68
2022/06/30 01:47:36;;;;;;;2.22;0.60;;;;;;;;;;5045372;28;20052;-67
2022/06/30 01:50:07;;;;;;;2.25;0.68;;;;;;;;;;5062703;28;20040;-68
2022/06/30 01:52:34;;;;;;;1.95;0.63;;;;;;;;;;5062755;28;20067;-68
2022/06/30 01:55:00;;;;;;;2.85;0.70;;;;;;;;;;5063126;28;20039;-67
2022/06/30 01:57:27;;;;;;;2.10;0.70;;;;;;;;;;5062696;28;20508;-69
2022/06/30 01:59:54;;;;;;;1.75;0.60;;;;;;;;;;5061875;28;20044;-67
2022/06/30 02:02:21;;;;;;;1.98;0.50;;;;;;;;;;5066304;28;20135;-67
2022/06/30 02:04:47;;;;;;;2.58;0.70;;;;;;;;;;5106517;27;20066;-67
2022/06/30 02:07:18;;;;;;;2.33;0.63;;;;;;;;;;5109413;27;20032;-68
2022/06/30 02:09:45;;;;;;;2.13;0.60;;;;;;;;;;5106759;27;20042;-68
2022/06/30 02:14:58;;;;;;;1.75;0.63;;;;;;;;;;5107445;27;20130;-68
2022/06/30 02:17:25;;;;;;;1.80;0.65;;;;;;;;;;5105764;27;20044;-70
2022/06/30 02:19:53;;;;;;;3.85;0.70;;;;;;;;;;5106652;27;20055;-69
2022/06/30 02:22:22;;;;;;;2.33;0.70;;;;;;;;;;5108652;27;20051;-67
2022/06/30 02:24:49;;;;;;;2.20;0.70;;;;;;;;;;5076660;27;20059;-67
2022/06/30 02:27:15;;;;;;;2.20;0.63;;;;;;;;;;5106547;27;20038;-67
2022/06/30 02:29:42;;;;;;;1.45;0.60;;;;;;;;;;5106263;27;20043;-67
2022/06/30 02:32:09;;;;;;;2.22;0.70;;;;;;;;;;5106940;27;20048;-67
2022/06/30 02:34:36;;;;;;;2.22;0.70;;;;;;;;;;5104135;27;20053;-67
2022/06/30 02:37:02;;;;;;;2.63;0.70;;;;;;;;;;5085487;27;20475;-67
2022/06/30 02:39:29;;;;;;;2.03;0.80;;;;;;;;;;5093453;27;20155;-66
2022/06/30 02:41:56;;;;;;;3.35;0.65;;;;;;;;;;5076251;28;20071;-66
2022/06/30 02:44:22;;;;;;;2.80;0.70;;;;;;;;;;5099647;27;20491;-67
2022/06/30 02:46:50;;;;;;;1.70;0.63;;;;;;;;;;5077692;27;20044;-66
2022/06/30 02:49:19;;;;;;;2.22;0.60;;;;;;;;;;5104163;27;20040;-66
2022/06/30 02:51:45;;;;;;;1.65;0.60;;;;;;;;;;5096608;27;20066;-66
2022/06/30 02:54:19;;;;;;;1.92;0.50;;;;;;;;;;5107633;27;20035;-67
2022/06/30 02:56:47;;;;;;;2.03;0.65;;;;;;;;;;5105448;27;20046;-67
2022/06/30 02:59:14;;;;;;;1.52;0.52;;;;;;;;;;5108683;27;20143;-67
2022/06/30 03:01:41;;;;;;;3.00;0.68;;;;;;;;;;5103221;27;20112;-66
2022/06/30 03:04:21;;;;;;;2.55;0.80;;;;;;;;;;5106532;27;20031;-68
2022/06/30 03:06:48;;;;;;;2.65;0.80;;;;;;;;;;5105775;27;20067;-69
2022/06/30 03:09:17;;;;;;;1.60;0.50;;;;;;;;;;5106023;27;20039;-69
2022/06/30 03:11:44;;;;;;;3.75;0.73;;;;;;;;;;5105776;27;20042;-69
2022/06/30 03:14:11;;;;;;;2.22;0.65;;;;;;;;;;5105820;27;20038;-69
2022/06/30 03:16:37;;;;;;;2.08;0.68;;;;;;;;;;5105558;27;20051;-70
2022/06/30 03:19:07;;;;;;;1.98;0.63;;;;;;;;;;5106173;27;20028;-69
2022/06/30 03:21:34;;;;;;;2.95;0.73;;;;;;;;;;5107310;27;20043;-68
2022/06/30 03:24:00;;;;;;;2.22;0.65;;;;;;;;;;5105311;27;20052;-69
2022/06/30 03:26:27;;;;;;;5.18;0.70;;;;;;;;;;5076280;28;20501;-68
2022/06/30 03:28:57;;;;;;;2.80;0.80;;;;;;;;;;5084396;28;20042;-69
2022/06/30 03:31:23;;;;;;;2.80;0.60;;;;;;;;;;5083647;28;20041;-68
2022/06/30 03:33:50;;;;;;;5.50;0.73;;;;;;;;;;5051867;28;20055;-68
2022/06/30 03:36:17;;;;;;;2.25;0.80;;;;;;;;;;5085768;28;20545;-68
2022/06/30 03:38:43;;;;;;;2.90;1.00;;;;;;;;;;5098205;27;20515;-68
2022/06/30 03:41:10;;;;;;;3.25;1.00;;;;;;;;;;5086137;28;20047;-69
2022/06/30 03:43:36;;;;;;;4.25;1.60;;;;;;;;;;5069878;28;20036;-68
2022/06/30 03:46:06;;;;;;;3.08;1.10;;;;;;;;;;5071696;28;20047;-67
2022/06/30 03:48:36;;;;;;;4.57;1.35;;;;;;;;;;5098604;27;20063;-68
2022/06/30 03:51:03;;;;;;;3.95;1.08;;;;;;;;;;5106122;27;20038;-68
2022/06/30 03:53:30;;;;;;;8.48;2.45;;;;;;;;;;5104944;27;20035;-68
2022/06/30 03:55:57;;;;;;;6.22;2.60;;;;;;;;;;5104786;27;20059;-68
2022/06/30 03:58:24;;;;;;;3.50;1.50;;;;;;;;;;5103736;27;20062;-67
2022/06/30 04:00:51;;;;;;;3.25;1.08;;;;;;;;;;5105579;27;20039;-68
2022/06/30 04:03:25;;;;;;;5.93;2.90;;;;;;;;;;5084091;28;20434;-67
2022/06/30 04:05:52;;;;;;;6.10;2.30;;;;;;;;;;5102494;27;20101;-67
2022/06/30 04:08:19;;;;;;;3.65;1.67;;;;;;;;;;5100727;27;20130;-67
2022/06/30 04:10:46;;;;;;;5.65;2.72;;;;;;;;;;5098520;27;20036;-68
2022/06/30 04:13:12;;;;;;;3.30;1.20;;;;;;;;;;5095501;27;20051;-68
2022/06/30 04:15:39;;;;;;;3.90;1.80;;;;;;;;;;5100584;27;20027;-68
2022/06/30 04:18:06;;;;;;;2.25;0.73;;;;;;;;;;5099163;27;20035;-68
2022/06/30 04:20:32;;;;;;;2.13;0.80;;;;;;;;;;5100161;27;20036;-69
2022/06/30 04:23:02;;;;;;;3.03;1.00;;;;;;;;;;5103795;27;20576;-68
2022/06/30 04:25:29;;;;;;;2.67;0.80;;;;;;;;;;5100838;27;20044;-69
2022/06/30 04:27:58;;;;;;;2.88;0.90;;;;;;;;;;5098750;27;20364;-67
2022/06/30 04:33:12;;;;;;;2.63;0.75;;;;;;;;;;5104999;27;20583;-68
2022/06/30 04:35:39;;;;;;;1.80;0.63;;;;;;;;;;5064537;28;20044;-68
2022/06/30 04:38:06;;;;;;;3.08;0.90;;;;;;;;;;5070201;28;20043;-67
2022/06/30 04:43:18;;;;;;;2.30;0.70;;;;;;;;;;5069274;28;20050;-69
2022/06/30 04:45:45;;;;;;;2.60;0.63;;;;;;;;;;5067426;28;20036;-68
2022/06/30 04:48:11;;;;;;;3.80;0.68;;;;;;;;;;5078500;27;20773;-68
2022/06/30 04:50:39;;;;;;;1.77;0.60;;;;;;;;;;5099504;27;20063;-68
2022/06/30 04:53:05;;;;;;;2.00;0.60;;;;;;;;;;5097529;27;20027;-68
2022/06/30 04:55:35;;;;;;;4.43;0.60;;;;;;;;;;5102695;27;20031;-68
2022/06/30 04:58:01;;;;;;;2.35;0.55;;;;;;;;;;5102664;27;20035;-68
2022/06/30 05:00:28;;;;;;;2.90;0.60;;;;;;;;;;5102995;27;20287;-68
2022/06/30 05:02:55;;;;;;;2.83;0.60;;;;;;;;;;5102462;27;20042;-68
2022/06/30 05:05:21;;;;;;;1.40;0.40;;;;;;;;;;5101637;27;20063;-68
2022/06/30 05:07:48;;;;;;;0.93;0.40;;;;;;;;;;5101429;27;20123;-68
2022/06/30 05:10:15;;;;;;;1.77;0.60;;;;;;;;;;5101937;27;20058;-67
2022/06/30 05:12:41;;;;;;;1.75;0.50;;;;;;;;;;5103295;27;20058;-68
2022/06/30 05:15:08;;;;;;;0.55;0.30;;;;;;;;;;5102611;28;20063;-67
2022/06/30 05:17:35;;;;;;;1.08;0.40;;;;;;;;;;5099663;27;20043;-66
2022/06/30 05:20:02;;;;;;;0.55;0.38;;;;;;;;;;5083499;28;20507;-67
2022/06/30 05:22:29;;;;;;;1.35;0.50;;;;;;;;;;5095685;28;20398;-67
2022/06/30 05:27:41;;;;;;;2.13;0.60;;;;;;;;;;5101479;28;20132;-67
2022/06/30 05:30:08;;;;;;;2.00;0.63;;;;;;;;;;5103583;28;20043;-68
2022/06/30 05:32:34;;;;;;;2.22;0.50;;;;;;;;;;5099864;28;20054;-67
2022/06/30 05:35:01;;;;;;;1.88;0.63;;;;;;;;;;5102858;27;20070;-67
2022/06/30 05:37:28;;;;;;;2.40;0.60;;;;;;;;;;5104848;27;20066;-67
2022/06/30 05:39:54;;;;;;;2.30;0.60;;;;;;;;;;5107411;27;20048;-67
2022/06/30 05:42:21;;;;;;;1.50;0.50;;;;;;;;;;5106751;27;20151;-69
2022/06/30 05:44:48;;;;;;;3.63;0.70;;;;;;;;;;5098080;27;20044;-67
2022/06/30 05:47:14;;;;;;;1.60;0.60;;;;;;;;;;5107803;27;20176;-66
2022/06/30 05:49:41;;;;;;;2.38;0.57;;;;;;;;;;5096573;27;20145;-67
2022/06/30 05:52:08;;;;;;;3.10;0.80;;;;;;;;;;5105130;27;20035;-66
2022/06/30 05:54:34;;;;;;;2.15;0.60;;;;;;;;;;5103133;27;20039;-66
2022/06/30 05:57:01;;;;;;;3.40;0.77;;;;;;;;;;5091930;27;20457;-66
2022/06/30 05:59:28;;;;;;;3.65;0.80;;;;;;;;;;5105708;27;20031;-65
2022/06/30 06:01:55;;;;;;;2.75;0.90;;;;;;;;;;5104765;27;20051;-65
2022/06/30 06:04:21;;;;;;;2.83;0.90;;;;;;;;;;5090590;27;20036;-65
2022/06/30 06:06:48;;;;;;;2.85;1.17;;;;;;;;;;5098255;27;20067;-66
2022/06/30 06:09:14;;;;;;;2.40;0.93;;;;;;;;;;5098378;27;20404;-66
2022/06/30 06:11:42;;;;;;;1.75;0.60;;;;;;;;;;5106895;27;20065;-65
2022/06/30 06:14:09;;;;;;;2.35;0.80;;;;;;;;;;5107119;27;20086;-66
2022/06/30 06:16:36;;;;;;;2.15;0.77;;;;;;;;;;5106294;27;20111;-65
2022/06/30 06:19:02;;;;;;;1.77;0.60;;;;;;;;;;5104730;27;20070;-65
2022/06/30 06:21:29;;;;;;;2.33;0.68;;;;;;;;;;5105954;27;20051;-65
2022/06/30 06:23:56;;;;;;;2.83;0.85;;;;;;;;;;5108080;27;20044;-63
2022/06/30 06:26:22;;;;;;;2.75;0.90;;;;;;;;;;5096446;27;20059;-65
2022/06/30 06:29:05;;;;;;;2.30;0.80;;;;;;;;;;5098217;27;20032;-65
2022/06/30 06:31:33;;;;;;;2.67;0.90;;;;;;;;;;5104024;28;20511;-65
2022/06/30 06:34:00;;;;;;;3.80;1.00;;;;;;;;;;5104815;28;20035;-65
2022/06/30 06:36:27;;;;;;;3.15;1.08;;;;;;;;;;5104634;27;20054;-65
2022/06/30 06:38:53;;;;;;;3.47;1.25;;;;;;;;;;5095284;28;20508;-65
2022/06/30 06:41:23;;;;;;;3.15;1.20;;;;;;;;;;5099514;28;22075;-65
2022/06/30 06:43:50;;;;;;;3.78;1.30;;;;;;;;;;5095984;28;20782;-65
2022/06/30 06:46:17;;;;;;;3.15;1.20;;;;;;;;;;5106766;28;20048;-65
2022/06/30 06:48:44;;;;;;;3.13;1.20;;;;;;;;;;5104855;28;20047;-65
2022/06/30 06:51:11;;;;;;;3.08;1.23;;;;;;;;;;5106076;28;20035;-66
2022/06/30 06:53:38;;;;;;;4.00;1.17;;;;;;;;;;5104287;28;20055;-65
2022/06/30 06:56:06;;;;;;;2.70;1.05;;;;;;;;;;5106801;27;20039;-65
2022/06/30 06:58:32;;;;;;;2.97;1.30;;;;;;;;;;5105290;28;20044;-65
2022/06/30 07:01:00;;;;;;;3.30;1.35;;;;;;;;;;5105519;28;20075;-66
2022/06/30 07:03:27;;;;;;;3.53;1.20;;;;;;;;;;5105766;28;20879;-64
2022/06/30 07:05:53;;;;;;;4.53;1.25;;;;;;;;;;5105767;28;20047;-65
2022/06/30 07:08:20;;;;;;;3.38;1.40;;;;;;;;;;5101952;28;20043;-66
2022/06/30 07:10:47;;;;;;;3.30;1.33;;;;;;;;;;5104665;28;20510;-65
2022/06/30 07:13:13;;;;;;;4.18;1.50;;;;;;;;;;5105775;28;20058;-66
2022/06/30 07:15:40;;;;;;;3.72;1.60;;;;;;;;;;5104654;27;20031;-65
2022/06/30 07:18:07;;;;;;;4.35;1.50;;;;;;;;;;5104604;28;20036;-66
2022/06/30 07:20:33;;;;;;;4.53;1.40;;;;;;;;;;5103165;27;20055;-66
2022/06/30 07:23:00;;;;;;;3.85;1.35;;;;;;;;;;5106453;28;20545;-66
2022/06/30 07:25:26;;;;;;;3.47;1.45;;;;;;;;;;5102343;28;20087;-66
2022/06/30 07:27:53;;;;;;;5.05;1.50;;;;;;;;;;5103951;28;20048;-66
2022/06/30 07:30:20;;;;;;;3.97;1.50;;;;;;;;;;5032591;27;2023566;-66
2022/06/30 07:32:46;;;;;;;3.83;1.60;;;;;;;;;;5104103;27;20058;-66
2022/06/30 07:35:13;;;;;;;3.40;1.50;;;;;;;;;;5106426;27;20066;-66
2022/06/30 07:37:40;;;;;;;3.63;1.85;;;;;;;;;;5103750;27;20035;-66
2022/06/30 07:40:07;;;;;;;3.90;1.75;;;;;;;;;;5105387;27;20471;-66
2022/06/30 07:42:35;;;;;;;4.13;1.77;;;;;;;;;;5103492;27;20662;-66
2022/06/30 07:45:03;;;;;;;3.75;1.70;;;;;;;;;;5106314;27;20043;-65
2022/06/30 07:47:30;;;;;;;4.40;1.90;;;;;;;;;;5103887;27;20044;-66
2022/06/30 07:49:56;;;;;;;4.07;1.92;;;;;;;;;;5098997;27;20364;-66
2022/06/30 07:52:23;;;;;;;5.93;2.08;;;;;;;;;;5092712;27;20040;-66
2022/06/30 07:54:51;;;;;;;4.32;1.88;;;;;;;;;;5105743;27;20540;-67
2022/06/30 07:57:18;;;;;;;4.15;1.85;;;;;;;;;;5095645;27;20044;-67
2022/06/30 07:59:44;;;;;;;3.95;1.98;;;;;;;;;;5101205;27;20128;-66
2022/06/30 08:02:11;;;;;;;3.42;1.52;;;;;;;;;;5104141;27;20044;-66
2022/06/30 08:04:38;;;;;;;4.18;1.90;;;;;;;;;;5084951;27;20068;-66
2022/06/30 08:07:05;;;;;;;3.92;1.77;;;;;;;;;;5069923;28;20040;-67
2022/06/30 08:09:33;;;;;;;6.07;2.22;;;;;;;;;;5067561;28;20405;-66
2022/06/30 08:11:59;;;;;;;4.30;1.90;;;;;;;;;;5067227;28;20504;-67
2022/06/30 08:14:26;;;;;;;4.50;2.28;;;;;;;;;;5066748;28;20032;-66
2022/06/30 08:16:53;;;;;;;5.05;1.95;;;;;;;;;;5057660;28;20048;-66
2022/06/30 08:19:20;;;;;;;4.47;1.95;;;;;;;;;;5081479;27;20031;-65
2022/06/30 08:21:47;;;;;;;4.28;2.00;;;;;;;;;;5104137;27;20048;-65
2022/06/30 08:24:14;;;;;;;4.15;1.98;;;;;;;;;;5097731;27;20128;-65
2022/06/30 08:26:41;;;;;;;4.75;2.08;;;;;;;;;;5094674;27;20433;-65
2022/06/30 08:29:08;;;;;;;4.40;2.10;;;;;;;;;;5088210;27;20050;-66
2022/06/30 08:31:35;;;;;;;4.50;1.88;;;;;;;;;;5085680;28;20783;-65
2022/06/30 08:34:03;;;;;;;4.43;2.17;;;;;;;;;;5086055;28;20040;-66
2022/06/30 08:36:29;;;;;;;5.68;2.35;;;;;;;;;;5085341;28;20405;-66
2022/06/30 08:38:56;;;;;;;4.80;2.33;;;;;;;;;;5086799;28;20507;-66
2022/06/30 08:44:09;;;;;;;6.22;2.50;;;;;;;;;;5090489;28;20093;-66
2022/06/30 08:46:37;;;;;;;6.30;2.60;;;;;;;;;;5088338;28;20112;-65
2022/06/30 08:49:04;;;;;;;4.70;2.47;;;;;;;;;;5088356;28;20067;-67
2022/06/30 08:51:30;;;;;;;5.45;2.90;;;;;;;;;;5063693;28;20039;-66
2022/06/30 08:53:59;;;;;;;5.45;2.58;;;;;;;;;;5106393;27;20047;-66
2022/06/30 08:56:29;;;;;;;5.30;2.58;;;;;;;;;;5105499;27;22415;-67
2022/06/30 08:58:56;;;;;;;4.95;2.78;;;;;;;;;;5106254;27;20050;-67
2022/06/30 09:01:23;;;;;;;6.38;2.75;;;;;;;;;;5105562;27;20046;-66
2022/06/30 09:03:49;;;;;;;5.63;2.90;;;;;;;;;;5105893;27;20408;-67
2022/06/30 09:06:16;;;;;;;5.00;2.85;;;;;;;;;;5106185;27;20111;-66
2022/06/30 09:08:43;;;;;;;5.60;3.08;;;;;;;;;;5103223;27;20160;-67
2022/06/30 09:11:09;;;;;;;5.28;3.13;;;;;;;;;;5103053;28;20443;-66
2022/06/30 09:13:55;;;;;;;7.47;3.22;;;;;;;;;;5084411;28;21810;-67
2022/06/30 09:16:22;;;;;;;7.22;3.03;;;;;;;;;;5102291;28;20060;-67
2022/06/30 09:18:58;;;;;;;5.75;3.13;;;;;;;;;;5101990;27;20512;-67
2022/06/30 09:21:26;;;;;;;5.38;2.90;;;;;;;;;;5101678;27;20047;-67
2022/06/30 09:23:52;;;;;;;5.50;2.88;;;;;;;;;;5103259;28;20036;-67
2022/06/30 09:26:20;;;;;;;5.38;3.03;;;;;;;;;;5102993;28;20063;-67
2022/06/30 09:28:53;;;;;;;6.03;3.58;;;;;;;;;;5101109;28;20111;-67
2022/06/30 09:31:45;;;;;;;5.25;3.20;;;;;;;;;;5083444;28;20048;-67
2022/06/30 09:34:16;;;;;;;5.68;3.08;;;;;;;;;;5101386;28;20119;-67
2022/06/30 09:36:43;;;;;;;6.15;2.90;;;;;;;;;;5102188;28;20721;-67
2022/06/30 09:39:13;;;;;;;6.15;3.53;;;;;;;;;;5082628;28;20035;-67
2022/06/30 09:41:40;;;;;;;6.05;3.08;;;;;;;;;;5100854;28;20044;-67
2022/06/30 09:44:07;;;;;;;5.25;2.92;;;;;;;;;;5103389;28;20050;-67
2022/06/30 09:46:36;;;;;;;5.65;3.17;;;;;;;;;;5101355;28;20047;-67
2022/06/30 09:49:04;;;;;;;5.93;3.38;;;;;;;;;;5102273;28;20126;-66
2022/06/30 09:51:41;;;;;;;6.50;3.30;;;;;;;;;;5104161;28;20043;-67
2022/06/30 09:54:09;;;;;;;5.93;3.45;;;;;;;;;;5105176;28;20044;-67
2022/06/30 09:56:36;;;;;;;5.35;3.22;;;;;;;;;;5103158;28;20051;-67
2022/06/30 09:59:06;;;;;;;5.95;2.92;;;;;;;;;;5101843;28;20070;-67
2022/06/30 10:01:52;;;;;;;4.90;2.60;;;;;;;;;;5103352;28;20609;-67
2022/06/30 10:04:18;;;;;;;5.80;3.70;;;;;;;;;;5103730;28;20047;-67
2022/06/30 10:06:46;;;;;;;6.68;3.20;;;;;;;;;;5103236;28;20922;-66
2022/06/30 10:09:18;;;;;;;7.47;3.47;;;;;;;;;;5101643;28;20621;-67
2022/06/30 10:11:46;;;;;;;7.63;3.75;;;;;;;;;;5102619;28;20129;-67
2022/06/30 10:14:15;;;;;;;6.88;3.72;;;;;;;;;;5102211;28;20035;-67
2022/06/30 10:16:43;;;;;;;7.38;3.83;;;;;;;;;;5102244;28;20031;-67
2022/06/30 10:19:13;;;;;;;6.15;3.28;;;;;;;;;;5064457;28;20067;-65
2022/06/30 10:21:41;;;;;;;7.90;3.88;;;;;;;;;;5102723;28;24723;-65
2022/06/30 10:24:09;;;;;;;7.35;3.85;;;;;;;;;;5105697;27;20043;-65
2022/06/30 10:29:21;;;;;;;8.40;3.95;;;;;;;;;;5100282;27;20058;-67
2022/06/30 10:31:54;;;;;;;7.85;4.07;;;;;;;;;;5089031;28;20047;-66
2022/06/30 10:34:22;;;;;;;6.97;3.80;;;;;;;;;;5086941;28;20071;-67
2022/06/30 10:37:00;;;;;;;6.50;3.95;;;;;;;;;;5089934;28;20047;-66
2022/06/30 10:39:39;;;;;;;7.50;3.88;;;;;;;;;;5088086;28;20150;-67
2022/06/30 10:42:05;;;;;;;7.20;4.18;;;;;;;;;;5089199;28;20047;-67
2022/06/30 10:44:32;;;;;;;7.43;3.92;;;;;;;;;;5087926;28;20044;-66
2022/06/30 10:46:59;;;;;;;7.68;4.10;;;;;;;;;;5088205;28;20050;-66
2022/06/30 10:49:26;;;;;;;7.95;4.50;;;;;;;;;;5088025;28;20123;-68
2022/06/30 10:51:57;;;;;;;8.07;4.50;;;;;;;;;;5091662;28;20772;-68
2022/06/30 10:54:34;;;;;;;8.38;4.53;;;;;;;;;;5088652;28;20143;-67
2022/06/30 10:57:02;;;;;;;7.47;4.35;;;;;;;;;;5088978;28;20031;-68
2022/06/30 10:59:29;;;;;;;7.05;4.22;;;;;;;;;;5087229;28;20042;-68
2022/06/30 11:02:08;;;;;;;8.90;4.82;;;;;;;;;;5089124;28;20723;-68
2022/06/30 11:04:36;;;;;;;8.95;4.63;;;;;;;;;;5086244;28;21746;-68
2022/06/30 11:07:12;;;;;;;7.75;4.47;;;;;;;;;;5087003;28;20052;-68
2022/06/30 11:09:47;;;;;;;9.27;4.30;;;;;;;;;;5088065;28;20101;-68
2022/06/30 11:12:23;;;;;;;9.45;4.65;;;;;;;;;;5085040;28;20059;-64
2022/06/30 11:15:00;;;;;;;8.93;4.68;;;;;;;;;;5086383;28;20493;-61
2022/06/30 11:17:27;;;;;;;7.82;4.45;;;;;;;;;;5085993;28;20035;-63
2022/06/30 11:20:01;;;;;;;7.63;4.68;;;;;;;;;;5087232;28;20046;-60
2022/06/30 11:22:29;;;;;;;7.57;4.55;;;;;;;;;;5087080;28;20129;-62
2022/06/30 11:24:58;;;;;;;8.27;4.90;;;;;;;;;;5089241;28;20040;-61
2022/06/30 11:27:28;;;;;;;7.13;4.07;;;;;;;;;;5087737;28;20775;-64
2022/06/30 11:29:59;;;;;;;10.13;4.65;;;;;;;;;;5088866;28;21689;-65
2022/06/30 11:32:26;;;;;;;7.93;4.70;;;;;;;;;;5086967;28;20063;-64
2022/06/30 11:34:52;;;;;;;8.05;4.28;;;;;;;;;;5086080;28;20040;-65
2022/06/30 11:37:22;;;;;;;8.45;4.90;;;;;;;;;;5086512;28;20040;-64
2022/06/30 11:39:57;;;;;;;7.65;4.53;;;;;;;;;;5088602;28;20055;-65
2022/06/30 11:42:23;;;;;;;8.52;4.72;;;;;;;;;;5088921;28;20052;-65
2022/06/30 11:44:50;;;;;;;7.90;5.07;;;;;;;;;;5089728;28;20098;-64
2022/06/30 11:47:17;;;;;;;10.35;5.00;;;;;;;;;;5089830;28;20123;-65
2022/06/30 11:49:48;;;;;;;10.07;4.70;;;;;;;;;;5085752;28;20768;-65
2022/06/30 11:52:15;;;;;;;9.00;4.78;;;;;;;;;;5089501;28;20036;-64
2022/06/30 11:54:48;;;;;;;8.38;4.75;;;;;;;;;;5057927;28;20408;-64
2022/06/30 11:57:15;;;;;;;8.43;4.45;;;;;;;;;;5087859;28;20044;-65
2022/06/30 11:59:48;;;;;;;10.43;4.63;;;;;;;;;;5086548;28;20089;-63
2022/06/30 12:02:16;;;;;;;7.93;4.55;;;;;;;;;;5085952;28;20128;-62
2022/06/30 12:04:43;;;;;;;7.90;4.22;;;;;;;;;;5085472;28;20917;-60
2022/06/30 12:07:12;;;;;;;8.20;4.28;;;;;;;;;;5086592;28;20028;-62
2022/06/30 12:09:39;;;;;;;7.78;4.72;;;;;;;;;;5084149;28;20039;-62
2022/06/30 12:12:08;;;;;;;8.48;5.03;;;;;;;;;;5086604;28;21103;-62
2022/06/30 12:14:39;;;;;;;8.77;4.60;;;;;;;;;;5085205;28;20035;-62
2022/06/30 12:17:06;;;;;;;7.82;4.78;;;;;;;;;;5087625;28;22177;-61
2022/06/30 12:19:33;;;;;;;8.80;5.22;;;;;;;;;;5086363;28;20069;-62
2022/06/30 12:22:01;;;;;;;10.65;5.20;;;;;;;;;;5088396;28;20096;-62
2022/06/30 12:24:28;;;;;;;9.73;5.22;;;;;;;;;;5084228;28;20040;-60
2022/06/30 12:26:57;;;;;;;11.30;5.82;;;;;;;;;;5086494;28;20081;-62
2022/06/30 12:29:24;;;;;;;8.85;5.32;;;;;;;;;;5086994;28;20059;-60
2022/06/30 12:32:00;;;;;;;9.82;5.18;;;;;;;;;;5085786;28;20138;-61
2022/06/30 12:34:27;;;;;;;10.07;5.30;;;;;;;;;;5082931;28;20109;-62
2022/06/30 12:36:57;;;;;;;8.70;5.03;;;;;;;;;;5087430;28;20054;-61
2022/06/30 12:39:24;;;;;;;9.07;5.32;;;;;;;;;;5085271;28;20039;-60
2022/06/30 12:42:00;;;;;;;9.70;5.57;;;;;;;;;;5085461;28;20085;-61
2022/06/30 12:44:31;;;;;;;8.13;4.78;;;;;;;;;;5084910;28;20047;-62
2022/06/30 12:47:02;;;;;;;8.20;4.90;;;;;;;;;;5068492;28;20452;-62
2022/06/30 12:49:29;;;;;;;8.68;5.13;;;;;;;;;;5084842;28;20042;-61
2022/06/30 12:51:56;;;;;;;9.98;5.45;;;;;;;;;;5085084;28;20070;-60
2022/06/30 12:54:24;;;;;;;8.82;4.95;;;;;;;;;;5082908;28;20040;-59
2022/06/30 12:56:51;;;;;;;9.40;5.00;;;;;;;;;;5083926;28;20509;-61
2022/06/30 12:59:21;;;;;;;11.07;5.40;;;;;;;;;;5086278;28;20040;-60
2022/06/30 13:01:59;;;;;;;10.68;5.70;;;;;;;;;;5084330;28;20055;-62
2022/06/30 13:04:30;;;;;;;10.27;6.05;;;;;;;;;;5083658;28;20654;-62
2022/06/30 13:06:57;;;;;;;10.00;4.97;;;;;;;;;;5082000;28;20036;-62
2022/06/30 13:09:29;;;;;;;13.82;5.60;;;;;;;;;;5086042;28;20032;-62
2022/06/30 13:11:57;;;;;;;10.00;5.03;;;;;;;;;;5084450;28;20071;-62
2022/06/30 13:14:24;;;;;;;8.57;5.15;;;;;;;;;;5083235;28;20047;-62
2022/06/30 13:16:51;;;;;;;10.00;5.57;;;;;;;;;;5084597;28;20222;-61
2022/06/30 13:19:18;;;;;;;9.57;5.63;;;;;;;;;;5084372;28;20039;-62
2022/06/30 13:21:48;;;;;;;8.02;5.30;;;;;;;;;;5084204;28;20590;-62
2022/06/30 13:24:15;;;;;;;13.00;5.80;;;;;;;;;;5082728;28;20043;-62
2022/06/30 13:26:42;;;;;;;10.77;5.30;;;;;;;;;;5083534;28;20447;-62
2022/06/30 13:29:09;;;;;;;9.68;5.55;;;;;;;;;;5085200;28;20873;-62
2022/06/30 13:31:36;;;;;;;9.73;5.60;;;;;;;;;;5085010;28;20526;-62
2022/06/30 13:34:07;;;;;;;7.78;4.97;;;;;;;;;;5085539;28;20047;-62
2022/06/30 13:36:34;;;;;;;9.52;5.25;;;;;;;;;;5086131;28;20043;-62
2022/06/30 13:39:01;;;;;;;10.07;5.55;;;;;;;;;;5086458;28;20204;-59
2022/06/30 13:41:29;;;;;;;10.55;5.45;;;;;;;;;;5086247;28;20051;-61
2022/06/30 13:43:55;;;;;;;8.75;4.93;;;;;;;;;;5087032;28;20044;-60
2022/06/30 13:46:23;;;;;;;9.15;5.25;;;;;;;;;;5085348;28;20040;-60
2022/06/30 13:48:49;;;;;;;8.13;5.22;;;;;;;;;;5085570;28;20042;-59
2022/06/30 13:51:16;;;;;;;8.70;4.65;;;;;;;;;;5085537;28;20425;-61
2022/06/30 13:53:43;;;;;;;7.75;4.82;;;;;;;;;;5084948;28;20047;-59
2022/06/30 13:56:09;;;;;;;8.75;5.15;;;;;;;;;;5087969;28;20480;-59
2022/06/30 13:58:36;;;;;;;8.85;5.00;;;;;;;;;;5089842;28;20597;-58
2022/06/30 14:01:03;;;;;;;11.32;5.53;;;;;;;;;;5090213;28;20036;-60
2022/06/30 14:03:29;;;;;;;9.27;5.40;;;;;;;;;;5090127;28;20523;-60
2022/06/30 14:05:56;;;;;;;9.68;4.72;;;;;;;;;;5089088;28;20043;-60
2022/06/30 14:08:23;;;;;;;9.80;5.00;;;;;;;;;;5089166;28;20602;-61
2022/06/30 14:10:49;;;;;;;9.88;5.18;;;;;;;;;;5090415;28;20039;-61
2022/06/30 14:13:16;;;;;;;8.85;5.05;;;;;;;;;;5089620;28;20048;-61
2022/06/30 14:15:43;;;;;;;9.68;5.10;;;;;;;;;;5088470;28;20044;-62
2022/06/30 14:18:11;;;;;;;19.58;6.18;;;;;;;;;;5080053;28;20077;-59
2022/06/30 14:20:37;;;;;;;9.40;4.97;;;;;;;;;;5091076;28;20070;-61
2022/06/30 14:23:04;;;;;;;9.52;4.97;;;;;;;;;;5073397;28;20078;-61
2022/06/30 14:25:31;;;;;;;9.18;4.35;;;;;;;;;;5088478;28;20150;-61
2022/06/30 14:27:58;;;;;;;10.50;5.18;;;;;;;;;;5091464;28;20044;-61
2022/06/30 14:30:24;;;;;;;10.60;5.13;;;;;;;;;;5097928;27;20086;-61
2022/06/30 14:32:51;;;;;;;9.93;5.43;;;;;;;;;;5103239;27;20042;-61
2022/06/30 14:35:18;;;;;;;8.73;5.38;;;;;;;;;;5101560;27;20075;-60
2022/06/30 14:37:45;;;;;;;9.75;5.00;;;;;;;;;;5100378;27;20528;-61
2022/06/30 14:40:12;;;;;;;10.27;4.95;;;;;;;;;;5099217;27;20070;-61
2022/06/30 14:42:47;;;;;;;8.73;4.38;;;;;;;;;;5097996;27;20507;-62
2022/06/30 14:45:19;;;;;;;10.80;5.05;;;;;;;;;;5099154;27;20110;-62
2022/06/30 14:47:50;;;;;;;12.13;5.13;;;;;;;;;;5100650;27;20064;-62
2022/06/30 14:50:17;;;;;;;8.43;5.13;;;;;;;;;;5102381;27;20477;-61
2022/06/30 14:52:45;;;;;;;9.13;5.28;;;;;;;;;;5103301;27;20162;-62
2022/06/30 14:55:13;;;;;;;9.88;5.70;;;;;;;;;;5105452;27;20067;-61
2022/06/30 14:57:42;;;;;;;10.07;5.43;;;;;;;;;;5099596;27;20068;-62
2022/06/30 15:00:09;;;;;;;9.35;5.10;;;;;;;;;;5099326;27;20856;-62
2022/06/30 15:02:37;;;;;;;12.95;6.25;;;;;;;;;;5097852;27;20055;-61
2022/06/30 15:05:08;;;;;;;14.75;7.35;;;;;;;;;;5069646;27;20092;-60